Terminal Aerodrome Forecast
Issued by NWS Goodland, KS

Home | Current Version | Previous Version | Text Only | Print | Product List | Glossary On
Versions: 1 2 3 4 5 6 7 8 9 10 11 12 13 14 15 16 17 18 19
081
FTUS43 KGLD 232335
TAFGLD
TAF
KGLD 232335Z 2400/2424 18024G36KT P6SM SCT250
     FM240500 19018G30KT P6SM VCTS SCT060CB BKN200
     FM240800 22013G18KT P6SM SCT200
     FM240900 36019G26KT P6SM BKN022
     FM241100 31014KT P6SM FEW200
     FM241800 31006KT P6SM SKC=

USA.gov is the U.S. government's official web portal to all federal, state and local government web resources and services.